Time;durP1;ratioP1;P1;durP2;ratioP2;P2;SDS_P1;SDS_P2;PMS_P1;PMS_P2;Temp;Humidity;BMP_temperature;BMP_pressure;BME280_temperature;BME280_humidity;BME280_pressure;Samples;Min_cycle;Max_cycle;Signal;HPM_P1;HPM_P2
2023/03/22 00:20:11;;;;;;;72.63;43.13;;;1.00;99.90;;;;;;4642044;29;20229;-82
2023/03/22 01:05:32;;;;;;;81.93;48.63;;;0.50;99.90;;;;;;4608690;29;20587;-83
2023/03/22 01:31:13;;;;;;;90.50;52.97;;;0.40;99.90;;;;;;4790018;28;20328;-81
2023/03/22 01:55:58;;;;;;;116.87;60.10;;;-0.10;99.90;;;;;;4763753;28;20674;-81
2023/03/22 02:16:24;;;;;;;131.13;66.57;;;-0.20;99.90;;;;;;4659946;29;20654;-81
2023/03/22 02:41:47;;;;;;;177.77;72.80;;;-0.30;99.90;;;;;;4613374;29;20815;-81
2023/03/22 03:27:18;;;;;;;167.10;66.33;;;0.20;99.90;;;;;;4714459;28;20570;-80
2023/03/22 03:53:12;;;;;;;150.10;59.77;;;0.40;99.90;;;;;;4850086;28;20392;-80
2023/03/22 04:13:28;;;;;;;124.43;52.27;;;0.50;99.90;;;;;;4799156;28;20236;-81
2023/03/22 04:43:34;;;;;;;99.03;42.50;;;0.50;99.90;;;;;;4757981;28;20535;-79
2023/03/22 05:13:35;;;;;;;86.93;38.53;;;0.80;99.90;;;;;;4707452;29;20225;-81
2023/03/22 05:33:06;;;;;;;76.13;36.47;;;1.00;99.90;;;;;;4641816;29;20207;-80
2023/03/22 05:48:31;;;;;;;74.30;37.30;;;1.40;99.90;;;;;;4539558;30;20293;-81
2023/03/22 06:38:22;;;;;;;68.40;38.47;;;3.50;99.90;;;;;;5789685;24;20310;-82
2023/03/22 07:08:16;;;;;;;57.03;34.70;;;5.30;99.90;;;;;;5644462;24;20600;-80
2023/03/22 07:39:16;;;;;;;31.97;22.33;;;7.40;99.90;;;;;;5872481;24;20511;-83
2023/03/22 07:59:44;;;;;;;23.23;16.70;;;9.10;99.90;;;;;;5816702;24;20212;-87
2023/03/22 09:25:27;;;;;;;17.77;13.63;;;12.20;90.70;;;;;;5701907;23;21146;-81
2023/03/22 09:45:59;;;;;;;20.47;14.03;;;11.90;92.40;;;;;;5611098;24;20264;-83
2023/03/22 10:16:05;;;;;;;16.77;12.50;;;12.40;89.70;;;;;;5582372;24;20694;-82
2023/03/22 10:36:53;;;;;;;15.67;12.13;;;12.50;90.40;;;;;;5542740;25;20355;-85
2023/03/22 11:11:52;;;;;;;16.60;11.47;;;13.10;88.10;;;;;;5650244;24;20592;-85
2023/03/22 11:37:47;;;;;;;15.07;10.70;;;12.60;90.60;;;;;;5711105;24;20715;-84
2023/03/22 12:03:03;;;;;;;14.20;10.07;;;13.80;86.60;;;;;;5754246;24;20223;-86
2023/03/22 12:33:42;;;;;;;13.33;9.37;;;14.60;84.10;;;;;;5678467;24;20371;-84
2023/03/22 13:03:39;;;;;;;12.53;8.60;;;14.30;83.20;;;;;;5538338;24;20643;-86
2023/03/22 13:24:23;;;;;;;12.97;8.97;;;14.10;84.30;;;;;;5661287;24;20988;-82
2023/03/22 13:49:52;;;;;;;12.53;8.77;;;14.50;83.70;;;;;;5637864;24;20755;-83
2023/03/22 13:54:17;;;;;;;11.80;9.70;;;14.30;83.90;;;;;;5600456;24;20672;-82
2023/03/22 14:29:43;;;;;;;13.27;9.57;;;13.70;86.10;;;;;;5947417;23;20510;-81
2023/03/22 14:50:34;;;;;;;13.13;9.80;;;13.80;86.70;;;;;;5828296;24;20201;-83
2023/03/22 15:20:51;;;;;;;13.40;9.50;;;13.50;88.10;;;;;;5713675;24;20197;-85
2023/03/22 15:41:24;;;;;;;13.40;10.30;;;13.20;89.80;;;;;;5698302;24;20546;-83
2023/03/22 16:31:28;;;;;;;19.47;11.70;;;12.10;92.10;;;;;;5720684;24;20392;-84
2023/03/22 16:52:26;;;;;;;19.50;11.37;;;11.30;95.60;;;;;;5601574;24;20230;-82
2023/03/22 17:17:06;;;;;;;19.57;12.07;;;10.00;99.90;;;;;;5449326;25;20775;-82
2023/03/22 17:42:28;;;;;;;21.80;14.20;;;9.30;99.90;;;;;;5457301;25;20239;-80
2023/03/22 18:07:47;;;;;;;23.43;15.80;;;9.50;99.90;;;;;;5494210;25;20233;-82
2023/03/22 18:28:05;;;;;;;28.73;18.10;;;10.10;99.90;;;;;;5489994;25;20270;-81
2023/03/22 18:54:09;;;;;;;27.40;19.73;;;9.80;99.90;;;;;;5697970;24;20178;-82
2023/03/22 19:19:30;;;;;;;29.40;20.50;;;9.90;99.90;;;;;;5667304;24;20177;-83
2023/03/22 19:59:57;;;;;;;33.00;21.37;;;9.50;99.90;;;;;;5842159;23;20225;-83
2023/03/22 20:20:06;;;;;;;36.23;23.87;;;8.80;99.90;;;;;;5555350;24;20430;-82
2023/03/22 21:00:51;;;;;;;36.17;25.93;;;8.00;99.90;;;;;;5750298;24;20175;-83
2023/03/22 21:26:10;;;;;;;36.77;23.20;;;7.10;99.90;;;;;;5678569;24;20198;-82
2023/03/22 21:46:21;;;;;;;37.77;23.67;;;6.70;99.90;;;;;;5467439;25;20639;-81
2023/03/22 22:16:53;;;;;;;73.57;41.83;;;6.60;99.90;;;;;;5640093;24;20574;-82
2023/03/22 22:52:10;;;;;;;40.83;25.17;;;6.50;99.90;;;;;;5510268;25;20187;-82
2023/03/22 23:22:36;;;;;;;44.63;26.83;;;5.80;99.90;;;;;;5661163;24;20193;-80
2023/03/22 23:52:54;;;;;;;42.83;28.23;;;6.40;99.90;;;;;;5553278;24;20269;-82
